Nearby METAR Reports

 

KSJC - San Jose, California, USA
Distance from station: NØ 14km
Oppdatert: 21/09/2020 04:53
Hovedsaklig skyet
Hovedsaklig skyet
 Vind fra VNV
Vind: VNV 13 km/h
Temperatur: 23°C
Duggpunkt: 11°C
Fuktighet: 47%
Barometer: 1011.2 hPa
Clouds: Hovedsaklig skyet
Visibility: 16 km
Cloud details: Few Clouds 30 m
Hovedsaklig skyet 1524 m
2020/09/21 02:53 KSJC 210253Z 30007KT 10SM FEW001 BKN050 23/11 A2986 RMK AO2 SLP110 HZ FEW001 FU BKN050 T02330111 53009
KNUQ - Moffett Nas/Mtn, California, USA
Distance from station: N 14km
Oppdatert: 20/09/2020 15:55
NOT Current
Delvis skyet
Delvis skyet
 Vind fra calm
Vind: Stille
Temperatur: 15°C
Duggpunkt: 13°C
Fuktighet: 88%
Barometer: 1012.5 hPa
Clouds: Delvis skyet
Visibility: 16 km
Cloud details: Delvis skyet 1524 m
2020/09/20 13:55 KNUQ 201355Z AUTO 00000KT 10SM SCT050 15/13 A2990 RMK AO2
 
KPAO - Palo Alto, California, USA
Distance from station: NNV 23km
Oppdatert: 21/09/2020 03:47
NOT Current
Klart
Klart
 Vind fra NNV
Vind: NNV 19 km/h
Temperatur: 21°C
Duggpunkt: 16°C
Fuktighet: 73%
Barometer: 1010.8 hPa
Clouds: Klart
Visibility: 16 km
2020/09/21 01:47 KPAO 210147Z 33010KT 10SM SKC 21/16 A2985 RMK LAST
KRHV - San Jose/Reid, California, USA
Distance from station: ØNØ 19km
Oppdatert: 21/09/2020 04:47
Klart
Klart
 Vind fra NV
Vind: NV 13 km/h
Temperatur: 25°C
Duggpunkt: 11°C
Fuktighet: 42%
Barometer: 1011.2 hPa
Clouds: Klart
Visibility: 16 km
2020/09/21 02:47 KRHV 210247Z 31007KT 10SM SKC 25/11 A2986
 
KOAK - Oakland, California, USA
Distance from station: NNV 50km
Oppdatert: 21/09/2020 04:53
Few Clouds
Few Clouds
 Vind fra NV
Vind: NV 9 km/h
Temperatur: 20°C
Duggpunkt: 15°C
Fuktighet: 73%
Barometer: 1011.2 hPa
Clouds: Few Clouds
Visibility: 16 km
Cloud details: Few Clouds 244 m
Few Clouds 4267 m
2020/09/21 02:53 KOAK 210253Z 31005KT 10SM FEW008 FEW140 20/15 A2986 RMK AO2 SLP111 T02000150 53002
KSQL - San Carlos Airpo, California, USA
Distance from station: NV 34km
Oppdatert: 21/09/2020 04:53
Klart
Klart
 Vind fra N
Vind: N 9 km/h
Temperatur: 21°C
Duggpunkt: 15°C
Fuktighet: 69%
Barometer: 1011.2 hPa
Clouds: Klart
Visibility: 16 km
2020/09/21 02:53 KSQL 210253Z 35005KT 10SM SKC 21/15 A2986
 
KSFO - San Francisco, California, USA
Distance from station: NV 49km
Oppdatert: 21/09/2020 04:56
Few Clouds
Few Clouds
 Vind fra VNV
Vind: VNV 28 km/h
Temperatur: 16°C
Duggpunkt: 13°C
Fuktighet: 83%
Barometer: 1010.8 hPa
Clouds: Few Clouds
Visibility: 16 km
Cloud details: Few Clouds 183 m
Few Clouds 4267 m
2020/09/21 02:56 KSFO 210256Z 30015KT 10SM FEW006 FEW140 16/13 A2985 RMK AO2 SLP107 T01610133 52002
KE16 - San Martin, California, USA
Distance from station: ØSØ 43km
Oppdatert: 21/09/2020 04:45
Klart
Klart
 Vind fra SØ
Vind: SØ 9 km/h
Temperatur: 23°C
Duggpunkt: 12°C
Fuktighet: 50%
Barometer: 1011.9 hPa
Clouds: Klart
Visibility: 16 km
2020/09/21 02:45 KE16 210245Z AUTO 14005KT 10SM CLR 23/12 A2988 RMK AO2 PWINO PNO
 
KWVI - Watsonville, California, USA
Distance from station: SSØ 44km
Oppdatert: 21/09/2020 04:53
Mist, Overskyet
Mist, Overskyet
 Vind fra SØ
Vind: SØ 6 km/h
Temperatur: 14°C
Duggpunkt: 14°C
Fuktighet: 100%
Barometer: 1012.5 hPa
Oversikt: Mist
Clouds: Overskyet
Visibility: 8 km
Cloud details: Overskyet 91 m
2020/09/21 02:53 KWVI 210253Z AUTO 14003KT 5SM BR OVC003 14/14 A2990 RMK AO2 SLP123 T01440139 53006
KHAF - Half Moon Bay, California, USA
Distance from station: VNV 50km
Oppdatert: 21/09/2020 04:55
Mist, Overskyet
Mist, Overskyet
 Vind fra N
Vind: N 7 km/h
Temperatur: 14°C
Duggpunkt: 14°C
Fuktighet: 100%
Barometer: 1012.9 hPa
Oversikt: Mist
Clouds: Overskyet
Visibility: 1.2 km
Cloud details: Overskyet 61 m
2020/09/21 02:55 KHAF 210255Z AUTO 36004KT 3/4SM BR OVC002 14/14 A2991 RMK AO2
 
KHWD - Hayward, California, USA
Distance from station: N 44km
Oppdatert: 21/09/2020 04:54
Klart
Klart
 Vind fra NV
Vind: NV 7 km/h
Temperatur: 23°C
Duggpunkt: 13°C
Fuktighet: 53%
Barometer: 1010.8 hPa
Clouds: Klart
Visibility: 16 km
2020/09/21 02:54 KHWD 210254Z 31004KT 10SM CLR 23/13 A2985 RMK AO2 SLP118 T02280133 53005
KLVK - Livermore, California, USA
Distance from station: NNØ 51km
Oppdatert: 21/09/2020 04:53
Klart
Klart
 Vind fra VSV
Vind: VSV 13 km/h
Temperatur: 24°C
Duggpunkt: 8°C
Fuktighet: 36%
Barometer: 1010.8 hPa
Clouds: Klart
Visibility: 13 km
2020/09/21 02:53 KLVK 210253Z 25007KT 8SM CLR 24/08 A2985 RMK AO2 SLP103 T02440083 53008